sensor_id;sensor_type;location;lat;lon;timestamp;pressure;altitude;pressure_sealevel;temperature;humidity
64614;BME280;51025;37.772;-122.432;2023-09-18T00:01:15;100965.37;;;24.41;30.32
64614;BME280;51025;37.772;-122.432;2023-09-18T00:03:43;100966.24;;;24.02;30.80
64614;BME280;51025;37.772;-122.432;2023-09-18T00:06:11;100971.78;;;24.21;31.05
64614;BME280;51025;37.772;-122.432;2023-09-18T00:08:40;100973.63;;;23.84;31.58
64614;BME280;51025;37.772;-122.432;2023-09-18T00:11:08;100976.21;;;23.90;31.63
64614;BME280;51025;37.772;-122.432;2023-09-18T00:13:37;100978.83;;;24.15;31.53
64614;BME280;51025;37.772;-122.432;2023-09-18T00:16:05;100979.73;;;23.89;31.51
64614;BME280;51025;37.772;-122.432;2023-09-18T00:18:33;100978.95;;;24.12;31.65
64614;BME280;51025;37.772;-122.432;2023-09-18T00:21:01;100985.87;;;23.63;31.84
64614;BME280;51025;37.772;-122.432;2023-09-18T00:23:29;100985.60;;;23.93;31.90
64614;BME280;51025;37.772;-122.432;2023-09-18T00:25:58;100981.83;;;23.71;32.14
64614;BME280;51025;37.772;-122.432;2023-09-18T00:28:26;100980.87;;;24.79;31.46
64614;BME280;51025;37.772;-122.432;2023-09-18T00:30:55;100981.04;;;24.15;31.85
64614;BME280;51025;37.772;-122.432;2023-09-18T00:33:23;100977.17;;;24.03;31.91
64614;BME280;51025;37.772;-122.432;2023-09-18T00:35:51;100977.17;;;24.24;31.68
64614;BME280;51025;37.772;-122.432;2023-09-18T00:38:20;100969.69;;;24.28;31.75
64614;BME280;51025;37.772;-122.432;2023-09-18T00:40:48;100970.03;;;23.79;32.22
64614;BME280;51025;37.772;-122.432;2023-09-18T00:43:16;100970.87;;;23.95;32.16
64614;BME280;51025;37.772;-122.432;2023-09-18T00:45:45;100969.90;;;23.77;32.31
64614;BME280;51025;37.772;-122.432;2023-09-18T00:48:16;100972.12;;;24.00;32.19
64614;BME280;51025;37.772;-122.432;2023-09-18T00:50:45;100978.04;;;23.93;32.21
64614;BME280;51025;37.772;-122.432;2023-09-18T00:53:16;100972.50;;;24.65;31.59
64614;BME280;51025;37.772;-122.432;2023-09-18T00:55:45;100977.75;;;24.24;31.87
64614;BME280;51025;37.772;-122.432;2023-09-18T00:58:14;100978.79;;;24.16;32.08
64614;BME280;51025;37.772;-122.432;2023-09-18T01:00:44;100975.74;;;23.92;31.98
64614;BME280;51025;37.772;-122.432;2023-09-18T01:03:12;100979.13;;;24.22;31.93
64614;BME280;51025;37.772;-122.432;2023-09-18T01:05:41;100978.95;;;24.34;31.84
64614;BME280;51025;37.772;-122.432;2023-09-18T01:08:09;100974.89;;;24.83;31.36
64614;BME280;51025;37.772;-122.432;2023-09-18T01:10:47;100978.39;;;24.14;32.13
64614;BME280;51025;37.772;-122.432;2023-09-18T01:13:20;100975.87;;;23.98;31.86
64614;BME280;51025;37.772;-122.432;2023-09-18T01:15:54;100975.85;;;24.36;31.92
64614;BME280;51025;37.772;-122.432;2023-09-18T01:18:25;100979.29;;;24.17;32.09
64614;BME280;51025;37.772;-122.432;2023-09-18T01:20:54;100979.45;;;24.67;32.00
64614;BME280;51025;37.772;-122.432;2023-09-18T01:23:22;100974.89;;;24.22;32.02
64614;BME280;51025;37.772;-122.432;2023-09-18T01:25:51;100980.99;;;24.38;32.21
64614;BME280;51025;37.772;-122.432;2023-09-18T01:28:19;100985.85;;;24.16;32.18
64614;BME280;51025;37.772;-122.432;2023-09-18T01:30:47;100982.41;;;24.15;32.14
64614;BME280;51025;37.772;-122.432;2023-09-18T01:33:16;100980.56;;;24.38;31.86
64614;BME280;51025;37.772;-122.432;2023-09-18T01:35:47;100980.97;;;24.28;32.02
64614;BME280;51025;37.772;-122.432;2023-09-18T01:38:16;100985.57;;;24.57;31.77
64614;BME280;51025;37.772;-122.432;2023-09-18T01:40:45;100985.56;;;23.83;32.44
64614;BME280;51025;37.772;-122.432;2023-09-18T01:43:14;100987.18;;;24.13;32.18
64614;BME280;51025;37.772;-122.432;2023-09-18T01:45:43;100990.73;;;24.03;32.30
64614;BME280;51025;37.772;-122.432;2023-09-18T01:48:11;100990.60;;;23.75;32.52
64614;BME280;51025;37.772;-122.432;2023-09-18T01:50:39;100992.11;;;23.78;32.47
64614;BME280;51025;37.772;-122.432;2023-09-18T01:53:07;100996.86;;;23.60;32.32
64614;BME280;51025;37.772;-122.432;2023-09-18T01:55:36;100994.17;;;23.85;32.45
64614;BME280;51025;37.772;-122.432;2023-09-18T01:58:04;100997.74;;;23.75;32.50
64614;BME280;51025;37.772;-122.432;2023-09-18T02:00:32;100999.79;;;23.68;32.60
64614;BME280;51025;37.772;-122.432;2023-09-18T02:03:00;101000.33;;;23.55;32.40
64614;BME280;51025;37.772;-122.432;2023-09-18T02:05:28;101001.55;;;23.82;32.45
64614;BME280;51025;37.772;-122.432;2023-09-18T02:07:56;101004.23;;;23.87;32.34
64614;BME280;51025;37.772;-122.432;2023-09-18T02:10:25;101012.83;;;24.12;32.18
64614;BME280;51025;37.772;-122.432;2023-09-18T02:12:53;101010.57;;;24.10;32.11
64614;BME280;51025;37.772;-122.432;2023-09-18T02:15:22;101006.39;;;23.79;32.45
64614;BME280;51025;37.772;-122.432;2023-09-18T02:17:50;101009.71;;;23.73;32.52
64614;BME280;51025;37.772;-122.432;2023-09-18T02:20:18;101011.94;;;23.86;32.40
64614;BME280;51025;37.772;-122.432;2023-09-18T02:22:46;101017.93;;;23.81;32.44
64614;BME280;51025;37.772;-122.432;2023-09-18T02:25:14;101018.09;;;24.31;32.00
64614;BME280;51025;37.772;-122.432;2023-09-18T02:27:43;101015.82;;;23.92;32.33
64614;BME280;51025;37.772;-122.432;2023-09-18T02:30:12;101013.00;;;23.79;32.47
64614;BME280;51025;37.772;-122.432;2023-09-18T02:32:40;101014.20;;;23.79;32.49
64614;BME280;51025;37.772;-122.432;2023-09-18T02:35:09;101018.40;;;23.84;32.41
64614;BME280;51025;37.772;-122.432;2023-09-18T02:37:37;101018.60;;;24.53;31.72
64614;BME280;51025;37.772;-122.432;2023-09-18T02:40:07;101015.40;;;23.42;32.46
64614;BME280;51025;37.772;-122.432;2023-09-18T02:42:36;101017.17;;;23.84;32.14
64614;BME280;51025;37.772;-122.432;2023-09-18T02:45:04;101019.98;;;24.04;32.27
64614;BME280;51025;37.772;-122.432;2023-09-18T02:47:32;101021.27;;;24.04;32.24
64614;BME280;51025;37.772;-122.432;2023-09-18T02:50:01;101022.86;;;24.26;31.71
64614;BME280;51025;37.772;-122.432;2023-09-18T02:52:30;101017.19;;;24.77;31.57
64614;BME280;51025;37.772;-122.432;2023-09-18T02:54:59;101019.36;;;23.86;32.37
64614;BME280;51025;37.772;-122.432;2023-09-18T02:57:27;101022.07;;;24.18;32.09
64614;BME280;51025;37.772;-122.432;2023-09-18T02:59:55;101022.76;;;24.31;31.95
64614;BME280;51025;37.772;-122.432;2023-09-18T03:02:23;101025.45;;;24.40;31.54
64614;BME280;51025;37.772;-122.432;2023-09-18T03:04:51;101027.07;;;23.99;31.54
64614;BME280;51025;37.772;-122.432;2023-09-18T03:07:18;101028.79;;;24.40;31.53
64614;BME280;51025;37.772;-122.432;2023-09-18T03:09:47;101027.87;;;24.07;31.80
64614;BME280;51025;37.772;-122.432;2023-09-18T03:12:16;101031.56;;;23.96;31.90
64614;BME280;51025;37.772;-122.432;2023-09-18T03:14:45;101032.70;;;23.94;31.87
64614;BME280;51025;37.772;-122.432;2023-09-18T03:17:13;101031.96;;;24.24;31.92
64614;BME280;51025;37.772;-122.432;2023-09-18T03:19:41;101029.12;;;24.02;32.12
64614;BME280;51025;37.772;-122.432;2023-09-18T03:22:09;101031.14;;;23.64;32.08
64614;BME280;51025;37.772;-122.432;2023-09-18T03:24:38;101039.20;;;24.13;31.67
64614;BME280;51025;37.772;-122.432;2023-09-18T03:27:06;101040.00;;;23.41;31.87
64614;BME280;51025;37.772;-122.432;2023-09-18T03:29:35;101041.92;;;24.26;31.80
64614;BME280;51025;37.772;-122.432;2023-09-18T03:32:04;101048.22;;;23.65;31.63
64614;BME280;51025;37.772;-122.432;2023-09-18T03:34:32;101050.12;;;24.28;31.73
64614;BME280;51025;37.772;-122.432;2023-09-18T03:37:01;101056.92;;;24.38;31.32
64614;BME280;51025;37.772;-122.432;2023-09-18T03:39:29;101058.82;;;23.79;31.85
64614;BME280;51025;37.772;-122.432;2023-09-18T03:41:58;101058.67;;;24.75;31.22
64614;BME280;51025;37.772;-122.432;2023-09-18T03:44:26;101055.22;;;23.96;32.00
64614;BME280;51025;37.772;-122.432;2023-09-18T03:46:55;101055.43;;;24.11;31.81
64614;BME280;51025;37.772;-122.432;2023-09-18T03:49:24;101057.98;;;24.34;31.57
64614;BME280;51025;37.772;-122.432;2023-09-18T03:51:52;101063.78;;;24.78;31.13
64614;BME280;51025;37.772;-122.432;2023-09-18T03:54:22;101062.88;;;24.44;31.41
64614;BME280;51025;37.772;-122.432;2023-09-18T03:56:50;101066.71;;;23.98;31.87
64614;BME280;51025;37.772;-122.432;2023-09-18T03:59:18;101068.63;;;24.35;31.51
64614;BME280;51025;37.772;-122.432;2023-09-18T04:01:46;101071.35;;;23.89;31.91
64614;BME280;51025;37.772;-122.432;2023-09-18T04:04:15;101069.33;;;24.27;31.57
64614;BME280;51025;37.772;-122.432;2023-09-18T04:06:44;101073.00;;;23.89;31.87
64614;BME280;51025;37.772;-122.432;2023-09-18T04:09:13;101071.60;;;24.24;31.62
64614;BME280;51025;37.772;-122.432;2023-09-18T04:11:41;101074.44;;;23.80;31.99
64614;BME280;51025;37.772;-122.432;2023-09-18T04:14:09;101075.70;;;23.77;32.05
64614;BME280;51025;37.772;-122.432;2023-09-18T04:16:38;101077.46;;;23.58;32.27
64614;BME280;51025;37.772;-122.432;2023-09-18T04:19:06;101076.20;;;23.73;32.10
64614;BME280;51025;37.772;-122.432;2023-09-18T04:21:35;101077.11;;;23.52;32.29
64614;BME280;51025;37.772;-122.432;2023-09-18T04:24:04;101084.40;;;23.37;32.11
64614;BME280;51025;37.772;-122.432;2023-09-18T04:26:33;101081.16;;;23.56;32.26
64614;BME280;51025;37.772;-122.432;2023-09-18T04:29:01;101081.57;;;23.35;32.18
64614;BME280;51025;37.772;-122.432;2023-09-18T04:31:30;101074.81;;;23.89;32.70
64614;BME280;51025;37.772;-122.432;2023-09-18T04:33:59;101078.44;;;23.44;32.42
64614;BME280;51025;37.772;-122.432;2023-09-18T04:36:27;101076.71;;;24.23;32.39
64614;BME280;51025;37.772;-122.432;2023-09-18T04:38:57;101075.31;;;24.15;32.10
64614;BME280;51025;37.772;-122.432;2023-09-18T04:41:26;101074.47;;;23.26;32.57
64614;BME280;51025;37.772;-122.432;2023-09-18T04:43:54;101076.15;;;23.89;31.97
64614;BME280;51025;37.772;-122.432;2023-09-18T04:46:23;101074.89;;;23.48;32.36
64614;BME280;51025;37.772;-122.432;2023-09-18T04:48:51;101078.53;;;23.81;32.31
64614;BME280;51025;37.772;-122.432;2023-09-18T04:51:20;101080.47;;;24.57;31.59
64614;BME280;51025;37.772;-122.432;2023-09-18T04:53:48;101080.12;;;23.53;32.19
64614;BME280;51025;37.772;-122.432;2023-09-18T04:56:17;101082.65;;;23.44;32.29
64614;BME280;51025;37.772;-122.432;2023-09-18T04:58:45;101085.35;;;23.93;31.85
64614;BME280;51025;37.772;-122.432;2023-09-18T05:01:13;101084.96;;;23.48;32.25
64614;BME280;51025;37.772;-122.432;2023-09-18T05:03:41;101085.85;;;23.53;32.17
64614;BME280;51025;37.772;-122.432;2023-09-18T05:06:09;101087.90;;;23.83;31.91
64614;BME280;51025;37.772;-122.432;2023-09-18T05:08:37;101084.82;;;23.51;32.18
64614;BME280;51025;37.772;-122.432;2023-09-18T05:11:06;101086.38;;;22.96;32.42
64614;BME280;51025;37.772;-122.432;2023-09-18T05:13:34;101082.22;;;23.24;32.45
64614;BME280;51025;37.772;-122.432;2023-09-18T05:16:02;101084.35;;;23.54;31.90
64614;BME280;51025;37.772;-122.432;2023-09-18T05:18:30;101080.12;;;24.30;31.45
64614;BME280;51025;37.772;-122.432;2023-09-18T05:20:58;101077.50;;;23.29;32.38
64614;BME280;51025;37.772;-122.432;2023-09-18T05:23:26;101077.80;;;24.01;31.73
64614;BME280;51025;37.772;-122.432;2023-09-18T05:25:55;101076.70;;;24.17;31.58
64614;BME280;51025;37.772;-122.432;2023-09-18T05:28:23;101076.22;;;24.24;31.45
64614;BME280;51025;37.772;-122.432;2023-09-18T05:30:51;101082.41;;;24.03;31.65
64614;BME280;51025;37.772;-122.432;2023-09-18T05:33:20;101080.61;;;24.29;31.42
64614;BME280;51025;37.772;-122.432;2023-09-18T05:35:47;101082.87;;;23.68;31.93
64614;BME280;51025;37.772;-122.432;2023-09-18T05:38:15;101079.67;;;24.50;31.52
64614;BME280;51025;37.772;-122.432;2023-09-18T05:40:45;101079.19;;;23.70;31.94
64614;BME280;51025;37.772;-122.432;2023-09-18T05:43:13;101081.69;;;23.67;31.97
64614;BME280;51025;37.772;-122.432;2023-09-18T05:45:42;101076.92;;;24.38;31.34
64614;BME280;51025;37.772;-122.432;2023-09-18T05:48:10;101077.78;;;24.57;31.56
64614;BME280;51025;37.772;-122.432;2023-09-18T05:50:39;101077.92;;;23.40;32.33
64614;BME280;51025;37.772;-122.432;2023-09-18T05:53:07;101079.48;;;23.31;32.44
64614;BME280;51025;37.772;-122.432;2023-09-18T05:55:35;101080.00;;;23.49;32.23
64614;BME280;51025;37.772;-122.432;2023-09-18T05:58:04;101079.40;;;23.63;32.08
64614;BME280;51025;37.772;-122.432;2023-09-18T06:00:33;101074.68;;;24.14;31.71
64614;BME280;51025;37.772;-122.432;2023-09-18T06:03:01;101072.86;;;24.15;31.61
64614;BME280;51025;37.772;-122.432;2023-09-18T06:05:29;101073.85;;;24.43;31.36
64614;BME280;51025;37.772;-122.432;2023-09-18T06:07:58;101073.84;;;24.34;31.42
64614;BME280;51025;37.772;-122.432;2023-09-18T06:10:26;101079.17;;;23.57;32.08
64614;BME280;51025;37.772;-122.432;2023-09-18T06:12:55;101079.48;;;24.28;31.78
64614;BME280;51025;37.772;-122.432;2023-09-18T06:15:23;101083.32;;;23.87;31.90
64614;BME280;51025;37.772;-122.432;2023-09-18T06:17:51;101085.31;;;23.66;32.02
64614;BME280;51025;37.772;-122.432;2023-09-18T06:20:19;101083.67;;;23.49;32.11
64614;BME280;51025;37.772;-122.432;2023-09-18T06:22:46;101082.75;;;24.08;31.55
64614;BME280;51025;37.772;-122.432;2023-09-18T06:25:15;101081.11;;;23.27;31.94
64614;BME280;51025;37.772;-122.432;2023-09-18T06:27:42;101081.22;;;23.93;31.76
64614;BME280;51025;37.772;-122.432;2023-09-18T06:30:11;101077.12;;;23.92;31.67
64614;BME280;51025;37.772;-122.432;2023-09-18T06:32:39;101077.29;;;23.82;31.81
64614;BME280;51025;37.772;-122.432;2023-09-18T06:35:08;101077.43;;;23.51;31.70
64614;BME280;51025;37.772;-122.432;2023-09-18T06:37:37;101074.77;;;24.18;31.31
64614;BME280;51025;37.772;-122.432;2023-09-18T06:40:07;101076.64;;;23.83;31.72
64614;BME280;51025;37.772;-122.432;2023-09-18T06:42:36;101073.37;;;24.18;31.34
64614;BME280;51025;37.772;-122.432;2023-09-18T06:45:05;101075.03;;;24.23;31.26
64614;BME280;51025;37.772;-122.432;2023-09-18T06:47:34;101078.56;;;23.69;31.79
64614;BME280;51025;37.772;-122.432;2023-09-18T06:50:02;101076.67;;;23.49;31.92
64614;BME280;51025;37.772;-122.432;2023-09-18T06:52:30;101077.94;;;23.74;31.74
64614;BME280;51025;37.772;-122.432;2023-09-18T06:54:59;101080.83;;;23.89;31.55
64614;BME280;51025;37.772;-122.432;2023-09-18T06:57:27;101073.40;;;24.24;31.22
64614;BME280;51025;37.772;-122.432;2023-09-18T06:59:55;101077.35;;;23.69;31.71
64614;BME280;51025;37.772;-122.432;2023-09-18T07:02:24;101078.26;;;23.51;31.78
64614;BME280;51025;37.772;-122.432;2023-09-18T07:04:52;101080.41;;;23.99;31.40
64614;BME280;51025;37.772;-122.432;2023-09-18T07:07:20;101079.96;;;23.37;31.97
64614;BME280;51025;37.772;-122.432;2023-09-18T07:09:48;101079.14;;;23.67;31.72
64614;BME280;51025;37.772;-122.432;2023-09-18T07:12:16;101079.05;;;24.00;31.33
64614;BME280;51025;37.772;-122.432;2023-09-18T07:14:44;101074.72;;;23.90;31.37
64614;BME280;51025;37.772;-122.432;2023-09-18T07:17:13;101079.92;;;23.69;31.62
64614;BME280;51025;37.772;-122.432;2023-09-18T07:19:41;101079.69;;;23.21;32.00
64614;BME280;51025;37.772;-122.432;2023-09-18T07:22:10;101078.73;;;23.02;32.25
64614;BME280;51025;37.772;-122.432;2023-09-18T07:24:38;101077.59;;;23.11;32.16
64614;BME280;51025;37.772;-122.432;2023-09-18T07:27:06;101079.44;;;23.07;32.09
64614;BME280;51025;37.772;-122.432;2023-09-18T07:29:34;101079.53;;;23.87;31.37
64614;BME280;51025;37.772;-122.432;2023-09-18T07:32:03;101078.75;;;23.18;32.02
64614;BME280;51025;37.772;-122.432;2023-09-18T07:34:32;101081.11;;;23.45;31.67
64614;BME280;51025;37.772;-122.432;2023-09-18T07:37:00;101080.00;;;23.48;31.72
64614;BME280;51025;37.772;-122.432;2023-09-18T07:39:28;101085.15;;;23.69;31.44
64614;BME280;51025;37.772;-122.432;2023-09-18T07:41:56;101080.85;;;24.20;31.61
64614;BME280;51025;37.772;-122.432;2023-09-18T07:44:24;101085.52;;;23.28;31.82
64614;BME280;51025;37.772;-122.432;2023-09-18T07:46:52;101085.37;;;23.79;32.04
64614;BME280;51025;37.772;-122.432;2023-09-18T07:49:20;101082.60;;;22.82;32.20
64614;BME280;51025;37.772;-122.432;2023-09-18T07:51:48;101077.81;;;23.68;32.13
64614;BME280;51025;37.772;-122.432;2023-09-18T07:54:16;101078.78;;;23.54;31.85
64614;BME280;51025;37.772;-122.432;2023-09-18T07:56:44;101078.66;;;23.05;31.94
64614;BME280;51025;37.772;-122.432;2023-09-18T07:59:12;101082.84;;;23.67;31.69
64614;BME280;51025;37.772;-122.432;2023-09-18T08:01:42;101082.90;;;23.23;31.77
64614;BME280;51025;37.772;-122.432;2023-09-18T08:04:10;101078.22;;;22.83;32.11
64614;BME280;51025;37.772;-122.432;2023-09-18T08:06:38;101076.74;;;22.91;32.01
64614;BME280;51025;37.772;-122.432;2023-09-18T08:09:06;101075.82;;;22.75;32.12
64614;BME280;51025;37.772;-122.432;2023-09-18T08:11:34;101079.54;;;22.83;31.72
64614;BME280;51025;37.772;-122.432;2023-09-18T08:14:02;101077.02;;;23.80;31.09
64614;BME280;51025;37.772;-122.432;2023-09-18T08:16:31;101074.39;;;22.91;31.91
64614;BME280;51025;37.772;-122.432;2023-09-18T08:19:00;101074.06;;;23.10;31.76
64614;BME280;51025;37.772;-122.432;2023-09-18T08:21:29;101071.92;;;23.34;31.45
64614;BME280;51025;37.772;-122.432;2023-09-18T08:23:58;101067.98;;;23.29;31.54
64614;BME280;51025;37.772;-122.432;2023-09-18T08:26:27;101065.81;;;22.91;31.79
64614;BME280;51025;37.772;-122.432;2023-09-18T08:28:55;101071.14;;;23.17;31.60
64614;BME280;51025;37.772;-122.432;2023-09-18T08:31:23;101066.46;;;22.90;31.86
64614;BME280;51025;37.772;-122.432;2023-09-18T08:33:51;101067.09;;;23.71;31.44
64614;BME280;51025;37.772;-122.432;2023-09-18T08:36:19;101064.78;;;23.37;31.36
64614;BME280;51025;37.772;-122.432;2023-09-18T08:38:47;101060.70;;;22.96;31.70
64614;BME280;51025;37.772;-122.432;2023-09-18T08:41:17;101059.37;;;23.31;31.38
64614;BME280;51025;37.772;-122.432;2023-09-18T08:43:46;101057.21;;;23.24;31.76
64614;BME280;51025;37.772;-122.432;2023-09-18T08:46:16;101057.49;;;23.10;31.90
64614;BME280;51025;37.772;-122.432;2023-09-18T08:48:45;101057.57;;;23.25;31.44
64614;BME280;51025;37.772;-122.432;2023-09-18T08:51:15;101058.95;;;22.84;31.83
64614;BME280;51025;37.772;-122.432;2023-09-18T08:53:44;101056.44;;;22.94;32.03
64614;BME280;51025;37.772;-122.432;2023-09-18T08:56:14;101057.62;;;22.51;32.16
64614;BME280;51025;37.772;-122.432;2023-09-18T08:58:43;101055.25;;;23.38;31.97
64614;BME280;51025;37.772;-122.432;2023-09-18T09:01:11;101055.99;;;22.66;31.96
64614;BME280;51025;37.772;-122.432;2023-09-18T09:03:41;101053.59;;;22.88;32.06
64614;BME280;51025;37.772;-122.432;2023-09-18T09:06:11;101056.51;;;22.60;32.02
64614;BME280;51025;37.772;-122.432;2023-09-18T09:08:40;101056.77;;;22.52;32.08
64614;BME280;51025;37.772;-122.432;2023-09-18T09:11:08;101058.06;;;23.45;31.95
64614;BME280;51025;37.772;-122.432;2023-09-18T09:13:36;101056.99;;;23.05;31.86
64614;BME280;51025;37.772;-122.432;2023-09-18T09:16:04;101051.77;;;22.38;32.16
64614;BME280;51025;37.772;-122.432;2023-09-18T09:18:33;101050.19;;;22.85;32.11
64614;BME280;51025;37.772;-122.432;2023-09-18T09:21:02;101047.23;;;22.73;31.84
64614;BME280;51025;37.772;-122.432;2023-09-18T09:23:46;101044.67;;;22.60;31.93
64614;BME280;51025;37.772;-122.432;2023-09-18T09:26:16;101042.67;;;22.87;32.02
64614;BME280;51025;37.772;-122.432;2023-09-18T09:28:45;101042.61;;;23.33;31.96
64614;BME280;51025;37.772;-122.432;2023-09-18T09:31:23;101042.42;;;22.40;32.13
64614;BME280;51025;37.772;-122.432;2023-09-18T09:33:52;101044.83;;;23.61;31.69
64614;BME280;51025;37.772;-122.432;2023-09-18T09:36:21;101048.13;;;22.46;32.05
64614;BME280;51025;37.772;-122.432;2023-09-18T09:38:55;101048.19;;;22.93;31.91
64614;BME280;51025;37.772;-122.432;2023-09-18T09:41:23;101047.25;;;23.27;32.00
64614;BME280;51025;37.772;-122.432;2023-09-18T09:43:52;101046.69;;;22.49;31.99
64614;BME280;51025;37.772;-122.432;2023-09-18T09:46:23;101045.09;;;22.49;31.98
64614;BME280;51025;37.772;-122.432;2023-09-18T09:49:07;101044.84;;;23.00;31.80
64614;BME280;51025;37.772;-122.432;2023-09-18T09:51:35;101043.84;;;22.66;32.15
64614;BME280;51025;37.772;-122.432;2023-09-18T09:54:04;101044.23;;;22.49;31.96
64614;BME280;51025;37.772;-122.432;2023-09-18T09:56:50;101035.97;;;22.91;31.93
64614;BME280;51025;37.772;-122.432;2023-09-18T09:59:19;101033.15;;;22.74;32.04
64614;BME280;51025;37.772;-122.432;2023-09-18T10:01:48;101030.47;;;23.17;32.03
64614;BME280;51025;37.772;-122.432;2023-09-18T10:04:18;101030.64;;;22.87;31.92
64614;BME280;51025;37.772;-122.432;2023-09-18T10:06:52;101027.99;;;22.84;31.94
64614;BME280;51025;37.772;-122.432;2023-09-18T10:09:23;101028.64;;;22.80;31.97
64614;BME280;51025;37.772;-122.432;2023-09-18T10:11:55;101027.83;;;23.22;31.98
64614;BME280;51025;37.772;-122.432;2023-09-18T10:14:30;101029.58;;;23.19;32.01
64614;BME280;51025;37.772;-122.432;2023-09-18T10:17:02;101027.91;;;22.11;32.31
64614;BME280;51025;37.772;-122.432;2023-09-18T10:19:39;101027.62;;;23.06;32.10
64614;BME280;51025;37.772;-122.432;2023-09-18T10:22:13;101026.64;;;22.64;32.14
64614;BME280;51025;37.772;-122.432;2023-09-18T10:24:47;101025.33;;;23.00;32.20
64614;BME280;51025;37.772;-122.432;2023-09-18T10:27:16;101026.88;;;22.53;32.26
64614;BME280;51025;37.772;-122.432;2023-09-18T10:29:46;101027.93;;;22.56;32.21
64614;BME280;51025;37.772;-122.432;2023-09-18T10:32:18;101031.87;;;23.20;32.03
64614;BME280;51025;37.772;-122.432;2023-09-18T10:34:46;101037.58;;;23.06;32.07
64614;BME280;51025;37.772;-122.432;2023-09-18T10:37:16;101038.93;;;23.05;32.09
64614;BME280;51025;37.772;-122.432;2023-09-18T10:39:48;101036.66;;;22.84;32.30
64614;BME280;51025;37.772;-122.432;2023-09-18T10:42:17;101037.56;;;22.38;32.00
64614;BME280;51025;37.772;-122.432;2023-09-18T10:44:47;101037.26;;;22.97;32.11
64614;BME280;51025;37.772;-122.432;2023-09-18T10:47:16;101034.93;;;23.01;32.09
64614;BME280;51025;37.772;-122.432;2023-09-18T10:49:44;101037.61;;;22.95;32.16
64614;BME280;51025;37.772;-122.432;2023-09-18T10:52:13;101036.09;;;22.87;32.24
64614;BME280;51025;37.772;-122.432;2023-09-18T10:54:42;101038.72;;;22.72;31.98
64614;BME280;51025;37.772;-122.432;2023-09-18T10:57:10;101035.91;;;22.65;32.05
64614;BME280;51025;37.772;-122.432;2023-09-18T10:59:44;101035.94;;;22.99;32.09
64614;BME280;51025;37.772;-122.432;2023-09-18T11:02:15;101038.80;;;22.93;32.15
64614;BME280;51025;37.772;-122.432;2023-09-18T11:04:44;101041.58;;;22.88;32.23
64614;BME280;51025;37.772;-122.432;2023-09-18T11:07:21;101037.67;;;22.96;32.10
64614;BME280;51025;37.772;-122.432;2023-09-18T11:09:50;101041.08;;;22.79;32.28
64614;BME280;51025;37.772;-122.432;2023-09-18T11:12:18;101039.38;;;22.53;32.13
64614;BME280;51025;37.772;-122.432;2023-09-18T11:14:49;101040.38;;;22.90;32.15
64614;BME280;51025;37.772;-122.432;2023-09-18T11:17:35;101040.51;;;22.38;32.25
64614;BME280;51025;37.772;-122.432;2023-09-18T11:20:05;101036.03;;;22.20;32.08
64614;BME280;51025;37.772;-122.432;2023-09-18T11:22:34;101036.92;;;22.87;32.15
64614;BME280;51025;37.772;-122.432;2023-09-18T11:26:08;101038.64;;;22.45;32.16
64614;BME280;51025;37.772;-122.432;2023-09-18T11:28:38;101036.96;;;22.90;32.16
64614;BME280;51025;37.772;-122.432;2023-09-18T11:31:06;101038.75;;;22.03;32.25
64614;BME280;51025;37.772;-122.432;2023-09-18T11:33:37;101035.21;;;22.92;32.09
64614;BME280;51025;37.772;-122.432;2023-09-18T11:36:07;101033.48;;;22.14;32.10
64614;BME280;51025;37.772;-122.432;2023-09-18T11:38:40;101032.58;;;22.87;32.18
64614;BME280;51025;37.772;-122.432;2023-09-18T11:41:25;101034.47;;;22.75;32.23
64614;BME280;51025;37.772;-122.432;2023-09-18T11:44:32;101034.00;;;22.77;32.25
64614;BME280;51025;37.772;-122.432;2023-09-18T11:47:01;101034.29;;;22.78;32.21
64614;BME280;51025;37.772;-122.432;2023-09-18T11:49:29;101037.54;;;22.75;32.23
64614;BME280;51025;37.772;-122.432;2023-09-18T11:51:59;101037.71;;;22.99;32.37
64614;BME280;51025;37.772;-122.432;2023-09-18T11:54:28;101038.74;;;22.21;32.34
64614;BME280;51025;37.772;-122.432;2023-09-18T11:57:02;101034.79;;;22.73;32.21
64614;BME280;51025;37.772;-122.432;2023-09-18T11:59:39;101036.76;;;22.70;32.26
64614;BME280;51025;37.772;-122.432;2023-09-18T12:02:08;101037.73;;;22.56;32.42
64614;BME280;51025;37.772;-122.432;2023-09-18T12:04:36;101037.36;;;22.83;32.11
64614;BME280;51025;37.772;-122.432;2023-09-18T12:07:05;101039.23;;;21.97;32.19
64614;BME280;51025;37.772;-122.432;2023-09-18T12:09:34;101041.71;;;22.68;32.27
64614;BME280;51025;37.772;-122.432;2023-09-18T12:12:06;101040.29;;;22.62;32.32
64614;BME280;51025;37.772;-122.432;2023-09-18T12:14:35;101044.65;;;22.66;32.32
64614;BME280;51025;37.772;-122.432;2023-09-18T12:17:04;101044.38;;;21.94;32.25
64614;BME280;51025;37.772;-122.432;2023-09-18T12:19:32;101044.20;;;22.61;32.34
64614;BME280;51025;37.772;-122.432;2023-09-18T12:22:00;101042.52;;;22.19;32.32
64614;BME280;51025;37.772;-122.432;2023-09-18T12:24:29;101043.63;;;22.49;32.46
64614;BME280;51025;37.772;-122.432;2023-09-18T12:26:58;101047.30;;;22.61;32.35
64614;BME280;51025;37.772;-122.432;2023-09-18T12:29:26;101046.92;;;22.60;32.33
64614;BME280;51025;37.772;-122.432;2023-09-18T12:31:55;101041.79;;;22.54;32.38